sensor_id;sensor_type;location;lat;lon;timestamp;P1;durP1;ratioP1;P2;durP2;ratioP2
15925;SDS011;8062;53.882;10.642;2023-07-31T00:00:53;0.30;;;0.30;;
15925;SDS011;8062;53.882;10.642;2023-07-31T00:02:13;0.20;;;0.20;;
15925;SDS011;8062;53.882;10.642;2023-07-31T00:03:32;0.30;;;0.30;;
15925;SDS011;8062;53.882;10.642;2023-07-31T00:04:52;0.30;;;0.30;;
15925;SDS011;8062;53.882;10.642;2023-07-31T00:06:12;0.30;;;0.30;;
15925;SDS011;8062;53.882;10.642;2023-07-31T00:07:32;0.23;;;0.23;;
15925;SDS011;8062;53.882;10.642;2023-07-31T00:08:51;0.20;;;0.20;;
15925;SDS011;8062;53.882;10.642;2023-07-31T00:10:11;0.33;;;0.33;;
15925;SDS011;8062;53.882;10.642;2023-07-31T00:11:30;0.23;;;0.23;;
15925;SDS011;8062;53.882;10.642;2023-07-31T00:12:50;0.30;;;0.30;;
15925;SDS011;8062;53.882;10.642;2023-07-31T00:14:09;0.37;;;0.37;;
15925;SDS011;8062;53.882;10.642;2023-07-31T00:15:29;0.50;;;0.50;;
15925;SDS011;8062;53.882;10.642;2023-07-31T00:16:49;0.30;;;0.30;;
15925;SDS011;8062;53.882;10.642;2023-07-31T00:18:08;0.30;;;0.30;;
15925;SDS011;8062;53.882;10.642;2023-07-31T00:19:28;0.37;;;0.37;;
15925;SDS011;8062;53.882;10.642;2023-07-31T00:20:47;0.23;;;0.23;;
15925;SDS011;8062;53.882;10.642;2023-07-31T00:22:07;0.30;;;0.30;;
15925;SDS011;8062;53.882;10.642;2023-07-31T00:23:26;0.30;;;0.30;;
15925;SDS011;8062;53.882;10.642;2023-07-31T00:24:45;0.17;;;0.17;;
15925;SDS011;8062;53.882;10.642;2023-07-31T00:26:05;0.20;;;0.20;;
15925;SDS011;8062;53.882;10.642;2023-07-31T00:27:25;0.40;;;0.40;;
15925;SDS011;8062;53.882;10.642;2023-07-31T00:28:44;0.30;;;0.30;;
15925;SDS011;8062;53.882;10.642;2023-07-31T00:30:04;0.30;;;0.30;;
15925;SDS011;8062;53.882;10.642;2023-07-31T00:31:25;0.30;;;0.30;;
15925;SDS011;8062;53.882;10.642;2023-07-31T00:32:45;0.30;;;0.30;;
15925;SDS011;8062;53.882;10.642;2023-07-31T00:34:05;0.40;;;0.40;;
15925;SDS011;8062;53.882;10.642;2023-07-31T00:35:27;0.33;;;0.33;;
15925;SDS011;8062;53.882;10.642;2023-07-31T00:36:47;0.40;;;0.40;;
15925;SDS011;8062;53.882;10.642;2023-07-31T00:38:09;0.37;;;0.37;;
15925;SDS011;8062;53.882;10.642;2023-07-31T00:39:29;0.57;;;0.57;;
15925;SDS011;8062;53.882;10.642;2023-07-31T00:40:49;0.40;;;0.40;;
15925;SDS011;8062;53.882;10.642;2023-07-31T00:42:09;0.50;;;0.50;;
15925;SDS011;8062;53.882;10.642;2023-07-31T00:43:28;0.37;;;0.37;;
15925;SDS011;8062;53.882;10.642;2023-07-31T00:44:48;0.50;;;0.50;;
15925;SDS011;8062;53.882;10.642;2023-07-31T00:46:08;0.40;;;0.40;;
15925;SDS011;8062;53.882;10.642;2023-07-31T00:47:28;0.33;;;0.33;;
15925;SDS011;8062;53.882;10.642;2023-07-31T00:48:48;0.40;;;0.40;;
15925;SDS011;8062;53.882;10.642;2023-07-31T00:50:08;0.30;;;0.30;;
15925;SDS011;8062;53.882;10.642;2023-07-31T00:51:28;0.30;;;0.30;;
15925;SDS011;8062;53.882;10.642;2023-07-31T00:52:47;0.33;;;0.33;;
15925;SDS011;8062;53.882;10.642;2023-07-31T00:54:07;0.30;;;0.30;;
15925;SDS011;8062;53.882;10.642;2023-07-31T00:55:26;0.40;;;0.40;;
15925;SDS011;8062;53.882;10.642;2023-07-31T00:56:46;0.30;;;0.30;;
15925;SDS011;8062;53.882;10.642;2023-07-31T00:58:07;0.40;;;0.40;;
15925;SDS011;8062;53.882;10.642;2023-07-31T00:59:26;0.40;;;0.40;;
15925;SDS011;8062;53.882;10.642;2023-07-31T01:00:46;0.20;;;0.20;;
15925;SDS011;8062;53.882;10.642;2023-07-31T01:02:06;0.20;;;0.20;;
15925;SDS011;8062;53.882;10.642;2023-07-31T01:03:26;0.23;;;0.23;;
15925;SDS011;8062;53.882;10.642;2023-07-31T01:04:46;0.30;;;0.30;;
15925;SDS011;8062;53.882;10.642;2023-07-31T01:06:20;0.37;;;0.37;;
15925;SDS011;8062;53.882;10.642;2023-07-31T01:07:49;0.33;;;0.33;;
15925;SDS011;8062;53.882;10.642;2023-07-31T01:09:18;0.27;;;0.27;;
15925;SDS011;8062;53.882;10.642;2023-07-31T01:10:48;0.30;;;0.30;;
15925;SDS011;8062;53.882;10.642;2023-07-31T01:12:15;0.20;;;0.20;;
15925;SDS011;8062;53.882;10.642;2023-07-31T01:13:35;0.30;;;0.30;;
15925;SDS011;8062;53.882;10.642;2023-07-31T01:15:08;0.20;;;0.20;;
15925;SDS011;8062;53.882;10.642;2023-07-31T01:16:33;0.20;;;0.20;;
15925;SDS011;8062;53.882;10.642;2023-07-31T01:17:53;0.33;;;0.33;;
15925;SDS011;8062;53.882;10.642;2023-07-31T01:19:14;0.30;;;0.30;;
15925;SDS011;8062;53.882;10.642;2023-07-31T01:20:37;0.20;;;0.20;;
15925;SDS011;8062;53.882;10.642;2023-07-31T01:22:09;0.40;;;0.40;;
15925;SDS011;8062;53.882;10.642;2023-07-31T01:25:15;0.27;;;0.27;;
15925;SDS011;8062;53.882;10.642;2023-07-31T01:26:40;0.20;;;0.20;;
15925;SDS011;8062;53.882;10.642;2023-07-31T01:28:05;0.30;;;0.30;;
15925;SDS011;8062;53.882;10.642;2023-07-31T01:29:32;0.20;;;0.20;;
15925;SDS011;8062;53.882;10.642;2023-07-31T01:30:52;0.20;;;0.20;;
15925;SDS011;8062;53.882;10.642;2023-07-31T01:32:17;0.27;;;0.27;;
15925;SDS011;8062;53.882;10.642;2023-07-31T01:33:37;0.20;;;0.20;;
15925;SDS011;8062;53.882;10.642;2023-07-31T01:34:57;0.23;;;0.23;;
15925;SDS011;8062;53.882;10.642;2023-07-31T01:36:18;0.20;;;0.20;;
15925;SDS011;8062;53.882;10.642;2023-07-31T01:37:37;0.30;;;0.30;;
15925;SDS011;8062;53.882;10.642;2023-07-31T01:38:58;0.30;;;0.30;;
15925;SDS011;8062;53.882;10.642;2023-07-31T01:40:19;0.30;;;0.30;;
15925;SDS011;8062;53.882;10.642;2023-07-31T01:41:38;0.30;;;0.30;;
15925;SDS011;8062;53.882;10.642;2023-07-31T01:42:58;0.27;;;0.27;;
15925;SDS011;8062;53.882;10.642;2023-07-31T01:44:18;0.30;;;0.30;;
15925;SDS011;8062;53.882;10.642;2023-07-31T01:45:37;0.20;;;0.20;;
15925;SDS011;8062;53.882;10.642;2023-07-31T01:46:57;0.27;;;0.27;;
15925;SDS011;8062;53.882;10.642;2023-07-31T01:48:18;0.20;;;0.20;;
15925;SDS011;8062;53.882;10.642;2023-07-31T01:49:38;0.20;;;0.20;;
15925;SDS011;8062;53.882;10.642;2023-07-31T01:51:00;0.20;;;0.20;;
15925;SDS011;8062;53.882;10.642;2023-07-31T01:52:20;0.30;;;0.30;;
15925;SDS011;8062;53.882;10.642;2023-07-31T01:53:40;0.33;;;0.33;;
15925;SDS011;8062;53.882;10.642;2023-07-31T01:55:01;0.40;;;0.40;;
15925;SDS011;8062;53.882;10.642;2023-07-31T01:56:20;0.30;;;0.30;;
15925;SDS011;8062;53.882;10.642;2023-07-31T01:57:40;0.37;;;0.37;;
15925;SDS011;8062;53.882;10.642;2023-07-31T01:58:59;0.33;;;0.33;;
15925;SDS011;8062;53.882;10.642;2023-07-31T02:00:19;0.33;;;0.33;;
15925;SDS011;8062;53.882;10.642;2023-07-31T02:01:39;0.30;;;0.30;;
15925;SDS011;8062;53.882;10.642;2023-07-31T02:02:59;0.20;;;0.20;;
15925;SDS011;8062;53.882;10.642;2023-07-31T02:04:19;0.30;;;0.30;;
15925;SDS011;8062;53.882;10.642;2023-07-31T02:05:45;0.27;;;0.27;;
15925;SDS011;8062;53.882;10.642;2023-07-31T02:07:05;0.33;;;0.33;;
15925;SDS011;8062;53.882;10.642;2023-07-31T02:08:26;0.37;;;0.37;;
15925;SDS011;8062;53.882;10.642;2023-07-31T02:09:45;0.30;;;0.30;;
15925;SDS011;8062;53.882;10.642;2023-07-31T02:11:06;0.30;;;0.30;;
15925;SDS011;8062;53.882;10.642;2023-07-31T02:12:26;0.30;;;0.30;;
15925;SDS011;8062;53.882;10.642;2023-07-31T02:13:45;0.27;;;0.27;;
15925;SDS011;8062;53.882;10.642;2023-07-31T02:15:05;0.30;;;0.30;;
15925;SDS011;8062;53.882;10.642;2023-07-31T02:16:25;0.20;;;0.20;;
15925;SDS011;8062;53.882;10.642;2023-07-31T02:17:44;0.30;;;0.30;;
15925;SDS011;8062;53.882;10.642;2023-07-31T02:19:05;0.23;;;0.23;;
15925;SDS011;8062;53.882;10.642;2023-07-31T02:20:25;0.20;;;0.20;;
15925;SDS011;8062;53.882;10.642;2023-07-31T02:21:44;0.30;;;0.30;;
15925;SDS011;8062;53.882;10.642;2023-07-31T02:23:04;0.30;;;0.30;;
15925;SDS011;8062;53.882;10.642;2023-07-31T02:24:24;0.20;;;0.20;;
15925;SDS011;8062;53.882;10.642;2023-07-31T02:25:44;0.20;;;0.20;;
15925;SDS011;8062;53.882;10.642;2023-07-31T02:27:03;0.30;;;0.30;;
15925;SDS011;8062;53.882;10.642;2023-07-31T02:28:23;0.30;;;0.30;;
15925;SDS011;8062;53.882;10.642;2023-07-31T02:29:43;0.30;;;0.30;;
15925;SDS011;8062;53.882;10.642;2023-07-31T02:31:03;0.30;;;0.30;;
15925;SDS011;8062;53.882;10.642;2023-07-31T02:32:22;0.20;;;0.20;;
15925;SDS011;8062;53.882;10.642;2023-07-31T02:33:41;0.30;;;0.30;;
15925;SDS011;8062;53.882;10.642;2023-07-31T02:35:02;0.30;;;0.30;;
15925;SDS011;8062;53.882;10.642;2023-07-31T02:36:22;0.30;;;0.30;;
15925;SDS011;8062;53.882;10.642;2023-07-31T02:37:42;0.30;;;0.30;;
15925;SDS011;8062;53.882;10.642;2023-07-31T02:39:02;0.33;;;0.33;;
15925;SDS011;8062;53.882;10.642;2023-07-31T02:40:21;0.30;;;0.30;;
15925;SDS011;8062;53.882;10.642;2023-07-31T02:41:42;0.30;;;0.30;;
15925;SDS011;8062;53.882;10.642;2023-07-31T02:43:01;0.30;;;0.30;;
15925;SDS011;8062;53.882;10.642;2023-07-31T02:44:21;0.30;;;0.30;;
15925;SDS011;8062;53.882;10.642;2023-07-31T02:45:40;0.30;;;0.30;;
15925;SDS011;8062;53.882;10.642;2023-07-31T02:47:00;0.30;;;0.30;;
15925;SDS011;8062;53.882;10.642;2023-07-31T02:48:20;0.20;;;0.20;;
15925;SDS011;8062;53.882;10.642;2023-07-31T02:49:40;0.30;;;0.30;;
15925;SDS011;8062;53.882;10.642;2023-07-31T02:50:59;0.30;;;0.30;;
15925;SDS011;8062;53.882;10.642;2023-07-31T02:52:19;0.30;;;0.30;;
15925;SDS011;8062;53.882;10.642;2023-07-31T02:53:39;0.20;;;0.20;;
15925;SDS011;8062;53.882;10.642;2023-07-31T02:54:58;0.20;;;0.20;;
15925;SDS011;8062;53.882;10.642;2023-07-31T02:56:18;0.20;;;0.20;;
15925;SDS011;8062;53.882;10.642;2023-07-31T02:57:38;0.20;;;0.20;;
15925;SDS011;8062;53.882;10.642;2023-07-31T02:58:57;0.20;;;0.20;;
15925;SDS011;8062;53.882;10.642;2023-07-31T03:00:17;0.30;;;0.30;;
15925;SDS011;8062;53.882;10.642;2023-07-31T03:01:37;0.40;;;0.40;;
15925;SDS011;8062;53.882;10.642;2023-07-31T03:02:57;0.50;;;0.50;;
15925;SDS011;8062;53.882;10.642;2023-07-31T03:04:16;0.70;;;0.70;;
15925;SDS011;8062;53.882;10.642;2023-07-31T03:05:36;0.50;;;0.50;;
15925;SDS011;8062;53.882;10.642;2023-07-31T03:06:56;0.50;;;0.50;;
15925;SDS011;8062;53.882;10.642;2023-07-31T03:08:16;0.30;;;0.30;;
15925;SDS011;8062;53.882;10.642;2023-07-31T03:09:35;0.43;;;0.43;;
15925;SDS011;8062;53.882;10.642;2023-07-31T03:10:56;0.50;;;0.50;;
15925;SDS011;8062;53.882;10.642;2023-07-31T03:12:16;0.47;;;0.47;;
15925;SDS011;8062;53.882;10.642;2023-07-31T03:13:35;0.50;;;0.50;;
15925;SDS011;8062;53.882;10.642;2023-07-31T03:14:55;0.50;;;0.50;;
15925;SDS011;8062;53.882;10.642;2023-07-31T03:16:15;0.50;;;0.50;;
15925;SDS011;8062;53.882;10.642;2023-07-31T03:17:34;0.40;;;0.40;;
15925;SDS011;8062;53.882;10.642;2023-07-31T03:18:54;0.30;;;0.30;;
15925;SDS011;8062;53.882;10.642;2023-07-31T03:20:14;0.23;;;0.23;;
15925;SDS011;8062;53.882;10.642;2023-07-31T03:21:34;0.20;;;0.20;;
15925;SDS011;8062;53.882;10.642;2023-07-31T03:22:53;0.20;;;0.20;;
15925;SDS011;8062;53.882;10.642;2023-07-31T03:24:13;0.20;;;0.20;;
15925;SDS011;8062;53.882;10.642;2023-07-31T03:25:32;0.33;;;0.33;;
15925;SDS011;8062;53.882;10.642;2023-07-31T03:26:52;0.50;;;0.50;;
15925;SDS011;8062;53.882;10.642;2023-07-31T03:28:12;0.40;;;0.40;;
15925;SDS011;8062;53.882;10.642;2023-07-31T03:29:31;0.20;;;0.20;;
15925;SDS011;8062;53.882;10.642;2023-07-31T03:30:51;0.20;;;0.20;;
15925;SDS011;8062;53.882;10.642;2023-07-31T03:32:12;0.50;;;0.50;;
15925;SDS011;8062;53.882;10.642;2023-07-31T03:33:31;0.60;;;0.60;;
15925;SDS011;8062;53.882;10.642;2023-07-31T03:34:51;0.60;;;0.60;;
15925;SDS011;8062;53.882;10.642;2023-07-31T03:36:10;0.50;;;0.50;;
15925;SDS011;8062;53.882;10.642;2023-07-31T03:37:30;0.40;;;0.40;;
15925;SDS011;8062;53.882;10.642;2023-07-31T03:38:51;0.40;;;0.40;;
15925;SDS011;8062;53.882;10.642;2023-07-31T03:40:11;0.50;;;0.50;;
15925;SDS011;8062;53.882;10.642;2023-07-31T03:41:31;0.60;;;0.60;;
15925;SDS011;8062;53.882;10.642;2023-07-31T03:42:50;0.60;;;0.60;;
15925;SDS011;8062;53.882;10.642;2023-07-31T03:44:10;0.40;;;0.40;;
15925;SDS011;8062;53.882;10.642;2023-07-31T03:45:29;0.50;;;0.50;;
15925;SDS011;8062;53.882;10.642;2023-07-31T03:46:50;0.50;;;0.50;;
15925;SDS011;8062;53.882;10.642;2023-07-31T03:48:11;0.50;;;0.50;;
15925;SDS011;8062;53.882;10.642;2023-07-31T03:49:32;0.50;;;0.50;;
15925;SDS011;8062;53.882;10.642;2023-07-31T03:50:52;0.43;;;0.43;;
15925;SDS011;8062;53.882;10.642;2023-07-31T03:52:12;0.50;;;0.50;;
15925;SDS011;8062;53.882;10.642;2023-07-31T03:53:31;0.50;;;0.50;;
15925;SDS011;8062;53.882;10.642;2023-07-31T03:54:51;0.53;;;0.53;;
15925;SDS011;8062;53.882;10.642;2023-07-31T03:56:11;0.60;;;0.60;;
15925;SDS011;8062;53.882;10.642;2023-07-31T03:57:30;0.50;;;0.50;;
15925;SDS011;8062;53.882;10.642;2023-07-31T03:58:51;0.40;;;0.40;;
15925;SDS011;8062;53.882;10.642;2023-07-31T04:00:11;0.57;;;0.57;;
15925;SDS011;8062;53.882;10.642;2023-07-31T04:01:34;0.47;;;0.47;;
15925;SDS011;8062;53.882;10.642;2023-07-31T04:02:53;0.47;;;0.47;;
15925;SDS011;8062;53.882;10.642;2023-07-31T04:04:13;0.50;;;0.50;;
15925;SDS011;8062;53.882;10.642;2023-07-31T04:05:32;0.43;;;0.43;;
15925;SDS011;8062;53.882;10.642;2023-07-31T04:06:52;0.43;;;0.43;;
15925;SDS011;8062;53.882;10.642;2023-07-31T04:08:11;0.70;;;0.70;;
15925;SDS011;8062;53.882;10.642;2023-07-31T04:09:31;0.50;;;0.50;;
15925;SDS011;8062;53.882;10.642;2023-07-31T04:10:51;0.50;;;0.50;;
15925;SDS011;8062;53.882;10.642;2023-07-31T04:12:10;0.67;;;0.67;;
15925;SDS011;8062;53.882;10.642;2023-07-31T04:13:29;0.47;;;0.47;;
15925;SDS011;8062;53.882;10.642;2023-07-31T04:14:49;0.50;;;0.50;;
15925;SDS011;8062;53.882;10.642;2023-07-31T04:16:09;0.40;;;0.40;;
15925;SDS011;8062;53.882;10.642;2023-07-31T04:17:28;0.40;;;0.40;;
15925;SDS011;8062;53.882;10.642;2023-07-31T04:18:48;0.50;;;0.50;;
15925;SDS011;8062;53.882;10.642;2023-07-31T04:20:08;0.50;;;0.50;;
15925;SDS011;8062;53.882;10.642;2023-07-31T04:21:28;0.50;;;0.50;;
15925;SDS011;8062;53.882;10.642;2023-07-31T04:22:49;0.40;;;0.40;;
15925;SDS011;8062;53.882;10.642;2023-07-31T04:24:08;0.50;;;0.50;;
15925;SDS011;8062;53.882;10.642;2023-07-31T04:25:28;0.50;;;0.50;;
15925;SDS011;8062;53.882;10.642;2023-07-31T04:26:48;0.40;;;0.40;;
15925;SDS011;8062;53.882;10.642;2023-07-31T04:28:07;0.53;;;0.53;;
15925;SDS011;8062;53.882;10.642;2023-07-31T04:29:27;0.50;;;0.50;;
15925;SDS011;8062;53.882;10.642;2023-07-31T04:30:47;0.60;;;0.60;;
15925;SDS011;8062;53.882;10.642;2023-07-31T04:32:06;0.57;;;0.57;;
15925;SDS011;8062;53.882;10.642;2023-07-31T04:33:26;0.60;;;0.60;;
15925;SDS011;8062;53.882;10.642;2023-07-31T04:34:45;0.50;;;0.50;;
15925;SDS011;8062;53.882;10.642;2023-07-31T04:36:05;0.50;;;0.50;;
15925;SDS011;8062;53.882;10.642;2023-07-31T04:37:24;0.50;;;0.50;;
15925;SDS011;8062;53.882;10.642;2023-07-31T04:38:44;0.50;;;0.50;;
15925;SDS011;8062;53.882;10.642;2023-07-31T04:40:03;0.40;;;0.40;;
15925;SDS011;8062;53.882;10.642;2023-07-31T04:41:23;0.47;;;0.47;;
15925;SDS011;8062;53.882;10.642;2023-07-31T04:42:43;0.50;;;0.50;;
15925;SDS011;8062;53.882;10.642;2023-07-31T04:44:02;0.40;;;0.40;;
15925;SDS011;8062;53.882;10.642;2023-07-31T04:45:22;0.40;;;0.40;;
15925;SDS011;8062;53.882;10.642;2023-07-31T04:46:42;0.43;;;0.43;;
15925;SDS011;8062;53.882;10.642;2023-07-31T04:48:01;0.40;;;0.40;;
15925;SDS011;8062;53.882;10.642;2023-07-31T04:49:21;0.70;;;0.70;;
15925;SDS011;8062;53.882;10.642;2023-07-31T04:50:41;0.60;;;0.60;;
15925;SDS011;8062;53.882;10.642;2023-07-31T04:52:00;0.60;;;0.60;;
15925;SDS011;8062;53.882;10.642;2023-07-31T04:53:20;0.53;;;0.53;;
15925;SDS011;8062;53.882;10.642;2023-07-31T04:54:39;0.60;;;0.60;;
15925;SDS011;8062;53.882;10.642;2023-07-31T04:55:59;0.60;;;0.60;;
15925;SDS011;8062;53.882;10.642;2023-07-31T04:57:19;0.40;;;0.40;;
15925;SDS011;8062;53.882;10.642;2023-07-31T04:58:38;0.53;;;0.53;;
15925;SDS011;8062;53.882;10.642;2023-07-31T04:59:58;0.50;;;0.50;;
15925;SDS011;8062;53.882;10.642;2023-07-31T05:01:17;0.50;;;0.50;;
15925;SDS011;8062;53.882;10.642;2023-07-31T05:02:37;0.50;;;0.50;;
15925;SDS011;8062;53.882;10.642;2023-07-31T05:03:56;0.50;;;0.50;;
15925;SDS011;8062;53.882;10.642;2023-07-31T05:05:16;0.60;;;0.60;;
15925;SDS011;8062;53.882;10.642;2023-07-31T05:06:35;0.53;;;0.53;;
15925;SDS011;8062;53.882;10.642;2023-07-31T05:07:55;0.60;;;0.60;;
15925;SDS011;8062;53.882;10.642;2023-07-31T05:09:14;0.60;;;0.60;;
15925;SDS011;8062;53.882;10.642;2023-07-31T05:10:34;0.50;;;0.50;;
15925;SDS011;8062;53.882;10.642;2023-07-31T05:11:53;0.50;;;0.50;;
15925;SDS011;8062;53.882;10.642;2023-07-31T05:13:13;0.47;;;0.47;;
15925;SDS011;8062;53.882;10.642;2023-07-31T05:14:33;0.50;;;0.50;;
15925;SDS011;8062;53.882;10.642;2023-07-31T05:15:52;0.47;;;0.47;;
15925;SDS011;8062;53.882;10.642;2023-07-31T05:17:12;0.50;;;0.50;;
15925;SDS011;8062;53.882;10.642;2023-07-31T05:18:31;0.60;;;0.60;;
15925;SDS011;8062;53.882;10.642;2023-07-31T05:19:51;0.43;;;0.43;;
15925;SDS011;8062;53.882;10.642;2023-07-31T05:21:10;0.60;;;0.60;;
15925;SDS011;8062;53.882;10.642;2023-07-31T05:22:30;0.43;;;0.43;;
15925;SDS011;8062;53.882;10.642;2023-07-31T05:23:49;0.53;;;0.53;;
15925;SDS011;8062;53.882;10.642;2023-07-31T05:25:09;0.50;;;0.50;;
15925;SDS011;8062;53.882;10.642;2023-07-31T05:26:28;0.40;;;0.40;;
15925;SDS011;8062;53.882;10.642;2023-07-31T05:27:48;0.43;;;0.43;;
15925;SDS011;8062;53.882;10.642;2023-07-31T05:29:08;0.60;;;0.60;;
15925;SDS011;8062;53.882;10.642;2023-07-31T05:30:29;0.50;;;0.50;;
15925;SDS011;8062;53.882;10.642;2023-07-31T05:31:49;0.50;;;0.50;;
15925;SDS011;8062;53.882;10.642;2023-07-31T05:33:09;0.47;;;0.47;;
15925;SDS011;8062;53.882;10.642;2023-07-31T05:34:28;0.40;;;0.40;;
15925;SDS011;8062;53.882;10.642;2023-07-31T05:35:48;0.60;;;0.60;;
15925;SDS011;8062;53.882;10.642;2023-07-31T05:37:09;0.60;;;0.60;;
15925;SDS011;8062;53.882;10.642;2023-07-31T05:38:30;0.50;;;0.50;;
15925;SDS011;8062;53.882;10.642;2023-07-31T05:39:49;0.50;;;0.50;;
15925;SDS011;8062;53.882;10.642;2023-07-31T05:41:11;0.57;;;0.57;;
15925;SDS011;8062;53.882;10.642;2023-07-31T05:42:31;0.60;;;0.60;;
15925;SDS011;8062;53.882;10.642;2023-07-31T05:43:50;0.60;;;0.60;;
15925;SDS011;8062;53.882;10.642;2023-07-31T05:45:10;0.50;;;0.50;;
15925;SDS011;8062;53.882;10.642;2023-07-31T05:46:30;0.40;;;0.40;;
15925;SDS011;8062;53.882;10.642;2023-07-31T05:47:50;0.50;;;0.50;;
15925;SDS011;8062;53.882;10.642;2023-07-31T05:49:10;0.53;;;0.53;;
15925;SDS011;8062;53.882;10.642;2023-07-31T05:50:30;0.47;;;0.47;;
15925;SDS011;8062;53.882;10.642;2023-07-31T05:51:49;0.53;;;0.53;;
15925;SDS011;8062;53.882;10.642;2023-07-31T05:53:08;0.43;;;0.43;;
15925;SDS011;8062;53.882;10.642;2023-07-31T05:54:29;0.50;;;0.50;;
15925;SDS011;8062;53.882;10.642;2023-07-31T05:55:49;0.53;;;0.53;;
15925;SDS011;8062;53.882;10.642;2023-07-31T05:57:09;0.53;;;0.53;;
15925;SDS011;8062;53.882;10.642;2023-07-31T05:58:28;0.50;;;0.50;;
15925;SDS011;8062;53.882;10.642;2023-07-31T05:59:48;0.50;;;0.50;;
15925;SDS011;8062;53.882;10.642;2023-07-31T06:01:07;0.57;;;0.57;;
15925;SDS011;8062;53.882;10.642;2023-07-31T06:02:27;0.60;;;0.60;;
15925;SDS011;8062;53.882;10.642;2023-07-31T06:03:46;0.57;;;0.57;;
15925;SDS011;8062;53.882;10.642;2023-07-31T06:05:06;0.57;;;0.57;;
15925;SDS011;8062;53.882;10.642;2023-07-31T06:06:26;0.60;;;0.60;;
15925;SDS011;8062;53.882;10.642;2023-07-31T06:07:45;0.57;;;0.57;;
15925;SDS011;8062;53.882;10.642;2023-07-31T06:09:05;0.57;;;0.57;;
15925;SDS011;8062;53.882;10.642;2023-07-31T06:10:24;0.70;;;0.70;;
15925;SDS011;8062;53.882;10.642;2023-07-31T06:11:44;0.60;;;0.60;;
15925;SDS011;8062;53.882;10.642;2023-07-31T06:13:03;0.60;;;0.60;;
15925;SDS011;8062;53.882;10.642;2023-07-31T06:14:23;0.67;;;0.67;;
15925;SDS011;8062;53.882;10.642;2023-07-31T06:15:43;0.63;;;0.63;;
15925;SDS011;8062;53.882;10.642;2023-07-31T06:17:02;0.53;;;0.53;;
15925;SDS011;8062;53.882;10.642;2023-07-31T06:18:22;0.57;;;0.57;;
15925;SDS011;8062;53.882;10.642;2023-07-31T06:19:42;0.63;;;0.63;;
15925;SDS011;8062;53.882;10.642;2023-07-31T06:21:01;0.73;;;0.73;;
15925;SDS011;8062;53.882;10.642;2023-07-31T06:22:20;0.67;;;0.67;;
15925;SDS011;8062;53.882;10.642;2023-07-31T06:23:40;0.67;;;0.67;;
15925;SDS011;8062;53.882;10.642;2023-07-31T06:25:00;0.57;;;0.57;;
15925;SDS011;8062;53.882;10.642;2023-07-31T06:26:20;0.63;;;0.63;;
15925;SDS011;8062;53.882;10.642;2023-07-31T06:27:39;0.80;;;0.80;;
15925;SDS011;8062;53.882;10.642;2023-07-31T06:28:59;0.73;;;0.73;;
15925;SDS011;8062;53.882;10.642;2023-07-31T06:30:18;0.67;;;0.67;;
15925;SDS011;8062;53.882;10.642;2023-07-31T06:31:38;0.87;;;0.87;;
15925;SDS011;8062;53.882;10.642;2023-07-31T06:32:58;0.57;;;0.57;;
15925;SDS011;8062;53.882;10.642;2023-07-31T06:34:17;0.67;;;0.67;;
15925;SDS011;8062;53.882;10.642;2023-07-31T06:35:36;0.60;;;0.60;;
15925;SDS011;8062;53.882;10.642;2023-07-31T06:36:56;0.63;;;0.63;;
15925;SDS011;8062;53.882;10.642;2023-07-31T06:38:18;0.60;;;0.60;;
15925;SDS011;8062;53.882;10.642;2023-07-31T06:39:42;0.60;;;0.60;;
15925;SDS011;8062;53.882;10.642;2023-07-31T06:41:01;0.70;;;0.70;;
15925;SDS011;8062;53.882;10.642;2023-07-31T06:42:21;0.53;;;0.53;;
15925;SDS011;8062;53.882;10.642;2023-07-31T06:43:40;0.67;;;0.67;;
15925;SDS011;8062;53.882;10.642;2023-07-31T06:45:00;0.63;;;0.63;;
15925;SDS011;8062;53.882;10.642;2023-07-31T06:46:20;0.63;;;0.63;;
15925;SDS011;8062;53.882;10.642;2023-07-31T06:47:39;0.60;;;0.60;;
15925;SDS011;8062;53.882;10.642;2023-07-31T06:48:59;0.63;;;0.63;;
15925;SDS011;8062;53.882;10.642;2023-07-31T06:50:18;0.67;;;0.67;;
15925;SDS011;8062;53.882;10.642;2023-07-31T06:51:37;0.67;;;0.67;;
15925;SDS011;8062;53.882;10.642;2023-07-31T06:52:57;0.73;;;0.73;;
15925;SDS011;8062;53.882;10.642;2023-07-31T06:54:17;0.53;;;0.53;;
15925;SDS011;8062;53.882;10.642;2023-07-31T06:55:36;0.60;;;0.60;;
15925;SDS011;8062;53.882;10.642;2023-07-31T06:56:56;0.57;;;0.57;;
15925;SDS011;8062;53.882;10.642;2023-07-31T06:58:15;0.43;;;0.43;;
15925;SDS011;8062;53.882;10.642;2023-07-31T06:59:35;0.60;;;0.60;;
15925;SDS011;8062;53.882;10.642;2023-07-31T07:00:55;0.60;;;0.60;;
15925;SDS011;8062;53.882;10.642;2023-07-31T07:02:14;0.43;;;0.43;;
15925;SDS011;8062;53.882;10.642;2023-07-31T07:03:34;0.60;;;0.60;;
15925;SDS011;8062;53.882;10.642;2023-07-31T07:04:53;0.73;;;0.73;;
15925;SDS011;8062;53.882;10.642;2023-07-31T07:06:13;0.57;;;0.57;;
15925;SDS011;8062;53.882;10.642;2023-07-31T07:07:33;0.60;;;0.60;;
15925;SDS011;8062;53.882;10.642;2023-07-31T07:08:53;0.70;;;0.70;;
15925;SDS011;8062;53.882;10.642;2023-07-31T07:10:12;0.73;;;0.73;;
15925;SDS011;8062;53.882;10.642;2023-07-31T07:11:32;0.63;;;0.63;;
15925;SDS011;8062;53.882;10.642;2023-07-31T07:12:52;0.57;;;0.57;;
15925;SDS011;8062;53.882;10.642;2023-07-31T07:14:12;0.67;;;0.67;;
15925;SDS011;8062;53.882;10.642;2023-07-31T07:15:31;0.57;;;0.57;;
15925;SDS011;8062;53.882;10.642;2023-07-31T07:16:51;0.60;;;0.60;;
15925;SDS011;8062;53.882;10.642;2023-07-31T07:18:11;0.80;;;0.80;;
15925;SDS011;8062;53.882;10.642;2023-07-31T07:19:30;0.53;;;0.53;;
15925;SDS011;8062;53.882;10.642;2023-07-31T07:20:50;0.60;;;0.60;;
15925;SDS011;8062;53.882;10.642;2023-07-31T07:22:11;0.67;;;0.67;;
15925;SDS011;8062;53.882;10.642;2023-07-31T07:23:30;0.67;;;0.67;;
15925;SDS011;8062;53.882;10.642;2023-07-31T07:24:50;0.57;;;0.57;;
15925;SDS011;8062;53.882;10.642;2023-07-31T07:26:10;0.70;;;0.70;;
15925;SDS011;8062;53.882;10.642;2023-07-31T07:27:29;0.50;;;0.50;;
15925;SDS011;8062;53.882;10.642;2023-07-31T07:28:50;0.57;;;0.57;;
15925;SDS011;8062;53.882;10.642;2023-07-31T07:30:10;0.50;;;0.50;;
15925;SDS011;8062;53.882;10.642;2023-07-31T07:31:29;0.60;;;0.60;;
15925;SDS011;8062;53.882;10.642;2023-07-31T07:32:49;0.63;;;0.63;;
15925;SDS011;8062;53.882;10.642;2023-07-31T07:34:09;0.73;;;0.73;;
15925;SDS011;8062;53.882;10.642;2023-07-31T07:35:29;0.63;;;0.63;;
15925;SDS011;8062;53.882;10.642;2023-07-31T07:36:48;0.60;;;0.60;;
15925;SDS011;8062;53.882;10.642;2023-07-31T07:38:08;0.70;;;0.70;;
15925;SDS011;8062;53.882;10.642;2023-07-31T07:39:28;0.63;;;0.63;;
15925;SDS011;8062;53.882;10.642;2023-07-31T07:40:48;0.63;;;0.63;;
15925;SDS011;8062;53.882;10.642;2023-07-31T07:42:12;0.63;;;0.63;;
15925;SDS011;8062;53.882;10.642;2023-07-31T07:43:31;0.80;;;0.80;;
15925;SDS011;8062;53.882;10.642;2023-07-31T07:44:51;0.67;;;0.67;;
15925;SDS011;8062;53.882;10.642;2023-07-31T07:46:10;0.70;;;0.70;;
15925;SDS011;8062;53.882;10.642;2023-07-31T07:47:30;0.80;;;0.80;;
15925;SDS011;8062;53.882;10.642;2023-07-31T07:48:49;0.77;;;0.77;;
15925;SDS011;8062;53.882;10.642;2023-07-31T07:50:09;0.67;;;0.67;;
15925;SDS011;8062;53.882;10.642;2023-07-31T07:51:29;0.60;;;0.60;;
15925;SDS011;8062;53.882;10.642;2023-07-31T07:52:50;0.60;;;0.60;;
15925;SDS011;8062;53.882;10.642;2023-07-31T07:54:09;0.63;;;0.63;;
15925;SDS011;8062;53.882;10.642;2023-07-31T07:55:29;0.60;;;0.60;;
15925;SDS011;8062;53.882;10.642;2023-07-31T07:56:48;0.50;;;0.50;;
15925;SDS011;8062;53.882;10.642;2023-07-31T07:58:08;0.60;;;0.60;;
15925;SDS011;8062;53.882;10.642;2023-07-31T07:59:28;0.60;;;0.60;;
15925;SDS011;8062;53.882;10.642;2023-07-31T08:00:50;0.53;;;0.53;;
15925;SDS011;8062;53.882;10.642;2023-07-31T08:02:10;0.60;;;0.60;;
15925;SDS011;8062;53.882;10.642;2023-07-31T08:03:29;0.57;;;0.57;;
15925;SDS011;8062;53.882;10.642;2023-07-31T08:04:49;0.60;;;0.60;;